KHYA/HYA METAR and TAF weather

Enter ICAO airport designator
Station Type Date Time Source
KHYA METAR 2022/01/26 18:56 UTC NOAA

KHYA 261856Z 35013KT 10SM CLR M02/M13 A3020 RMK AO2 SLP229 T10171128


Station Type Date Time Source
KHYA Decoded METAR 2022/01/26 18:56 UTC NOAA

HYANNIS BARNSTABLE BOARDMN, MA, United States (KHYA) 41-40N 070-16W 22M
Jan 26, 2022 - 01:56 PM EST / 2022.01.26 1856 UTC
Wind: from the N (350 degrees) at 15 MPH (13 KT):0
Visibility: 10 mile(s):0
Sky conditions: clear
Temperature: 28.9 F (-1.7 C)
Windchill: 17 F (-8 C):1
Dew Point: 9.0 F (-12.8 C)
Relative Humidity: 42%
Pressure (altimeter): 30.2 in. Hg (1022 hPa)
ob: KHYA 261856Z 35013KT 10SM CLR M02/M13 A3020 RMK AO2 SLP229 T10171128
cycle: 19

Station Type Date Time Source
KHYA TAF 2022/01/26 18:36 UTC NOAA

TAF KHYA 261734Z 2618/2718 33012G20KT P6SM FEW035
FM270300 34012G19KT P6SM SCT035
FM270500 34011KT P6SM FEW035
FM271200 33004KT P6SM SCT035
FM271600 25004KT P6SM FEW200

Example: see airport list